This is the latest recevied weather packets stored in our database for station/object N5KJT. If no packets are shown the sender has not sent any weather packets the latest 10 day(s).
| Time | Temp. | Humidity | Pressure | Rain* | Wind** | Luminosity | Snow |
|---|---|---|---|---|---|---|---|
| 1787693416 | 31.11° C | 29% | 1025.9 hPa | 0 mm | - | 1025 W/m² | - |
| 1787693116 | 30.56° C | 28% | 1026 hPa | 0.25 mm | - | 1039 W/m² | - |
| 1787692816 | 30° C | 26% | 1026 hPa | 2.79 mm | - | 1053 W/m² | - |
| 1787692516 | 29.44° C | 29% | 1026.1 hPa | 3.05 mm | - | 1061 W/m² | - |
| 1787692215 | 29.44° C | 30% | 1026.2 hPa | 3.05 mm | - | 1101 W/m² | - |
| 1787691916 | 28.33° C | 34% | 1026.3 hPa | 3.05 mm | - | 1109 W/m² | - |
| 1787691616 | 27.22° C | 38% | 1026.3 hPa | 3.05 mm | - | 1170 W/m² | - |
| 1787691316 | 26.11° C | 41% | 1026.4 hPa | 3.05 mm | - | 1282 W/m² | - |
| 1787691015 | 25° C | 42% | 1026.5 hPa | 3.05 mm | - | 1357 W/m² | - |
| 1787690716 | 23.89° C | 59% | 1026.7 hPa | 3.05 mm | - | 526 W/m² | - |
| 1787690416 | 23.33° C | 62% | 1026.7 hPa | 3.05 mm | - | 493 W/m² | - |
| 1787690116 | 22.22° C | 54% | 1026.8 hPa | 3.05 mm | - | 460 W/m² | - |
| 1787689816 | 22.22° C | 58% | 1027.3 hPa | 3.05 mm | - | 284 W/m² | - |
| 1787689516 | 23.33° C | 52% | 1027.7 hPa | 2.54 mm | - | 174 W/m² | - |
| 1787689216 | 25° C | 48% | 1027.7 hPa | 0.25 mm | - | 105 W/m² | - |
| 1787688971 | 27.22° C | 42% | - | 0 mm | - | 88 W/m² | - |
| 1787688639 | 30° C | 42% | - | 0 mm | - | 92 W/m² | - |
| 1787688316 | 30.56° C | 32% | 1027.2 hPa | 0 mm | - | 105 W/m² | - |
| 1787688015 | 30.56° C | 27% | 1027 hPa | 0 mm | - | 119 W/m² | - |
| 1787687716 | 30.56° C | 27% | 1027 hPa | 0 mm | - | 126 W/m² | - |
| 1787687416 | 31.11° C | 24% | 1026.9 hPa | 0 mm | - | 143 W/m² | - |
| 1787687116 | 31.11° C | 27% | 1027 hPa | 0 mm | - | 175 W/m² | - |
| 1787686815 | 31.11° C | 27% | 1027 hPa | 0 mm | - | 215 W/m² | - |
| 1787686516 | 31.11° C | 28% | 1027 hPa | 0 mm | - | 264 W/m² | - |
| 1787686215 | 31.67° C | 28% | 1027.1 hPa | 0 mm | - | 275 W/m² | - |
* Rain latest hour (hover to see other rain measurements)
** Current wind speed in m/s (hover to see current wind gust speed)